createdAt,value
2019-03-22T00:12:28.671Z,89.36
2019-03-22T00:15:46.277Z,88.69
2019-03-22T00:16:47.080Z,88.74
2019-03-22T00:17:47.853Z,89.12
2019-03-22T00:18:48.419Z,89.89
2019-03-22T00:19:48.991Z,88.93
2019-03-22T00:20:49.563Z,89.03
2019-03-22T00:21:50.190Z,88.74
2019-03-22T00:22:50.764Z,89.61
2019-03-22T00:23:51.335Z,88.93
2019-03-22T00:24:51.908Z,87.88
2019-03-22T00:25:52.483Z,88.93
2019-03-22T00:26:53.052Z,88.93
2019-03-22T00:27:53.628Z,88.35
2019-03-22T00:28:54.251Z,88.45
2019-03-22T00:29:54.825Z,88.74
2019-03-22T00:30:55.450Z,88.65
2019-03-22T00:31:56.074Z,88.84
2019-03-22T00:32:56.650Z,88.84
2019-03-22T00:33:57.224Z,88.55
2019-03-22T00:34:57.849Z,88.93
2019-03-22T00:37:00.081Z,88.26
2019-03-22T00:38:00.649Z,87.78
2019-03-22T00:39:01.216Z,87.78
2019-03-22T00:40:01.836Z,88.26
2019-03-22T00:41:02.401Z,88.93
2019-03-22T00:42:30.452Z,88.26
2019-03-22T00:43:44.791Z,88.65
2019-03-22T00:48:03.906Z,89.22
2019-03-22T01:22:45.393Z,86.97
2019-03-22T01:35:56.726Z,88.22
2019-03-22T01:53:08.384Z,89.27
2019-03-22T01:54:08.946Z,87.93
2019-03-22T01:55:09.563Z,86.88
2019-03-22T01:56:10.175Z,86.68
2019-03-22T01:57:10.792Z,86.21
2019-03-22T02:05:38.003Z,87.55
2019-03-22T02:06:57.737Z,87.64
2019-03-22T02:10:29.197Z,87.35
2019-03-22T02:21:45.220Z,87.79
2019-03-22T02:22:45.937Z,87.41
2019-03-22T02:24:29.451Z,87.21
2019-03-22T02:26:59.198Z,87.07
2019-03-22T02:28:04.460Z,86.74
2019-03-22T02:30:44.487Z,88.12
2019-03-22T02:33:56.313Z,88.12
2019-03-22T02:45:00.881Z,87.79
2019-03-22T02:46:01.495Z,87.60
2019-03-22T02:47:02.104Z,88.27
2019-03-22T02:48:02.634Z,87.31
2019-03-22T02:49:03.196Z,88.94
2019-03-22T02:50:17.126Z,88.17
2019-03-22T02:51:05.381Z,87.70
2019-03-22T02:57:36.012Z,90.00
2019-03-22T02:58:36.578Z,90.19
2019-03-22T02:59:37.186Z,91.24
2019-03-22T03:31:26.821Z,88.27
2019-03-22T03:32:27.508Z,88.17
2019-03-22T03:33:28.051Z,88.17
2019-03-22T03:34:28.761Z,87.79
2019-03-22T03:35:29.393Z,88.27
2019-03-22T03:36:29.943Z,87.79
2019-03-22T03:37:30.508Z,88.17
2019-03-22T03:38:31.127Z,88.84
2019-03-22T03:39:31.742Z,88.17
2019-03-22T03:40:32.359Z,88.37
2019-03-22T03:41:32.933Z,88.56
2019-03-22T03:42:33.499Z,89.13
2019-03-22T03:43:34.068Z,88.27
2019-03-22T03:44:34.638Z,88.65
2019-03-22T03:45:35.208Z,87.41
2019-03-22T03:46:35.815Z,88.65
2019-03-22T03:47:36.432Z,88.46
2019-03-22T03:48:37.051Z,89.04
2019-03-22T03:49:37.629Z,89.32
2019-03-22T03:50:38.243Z,90.95
2019-03-22T03:51:38.840Z,90.67
2019-03-22T03:52:39.755Z,89.32
2019-03-22T03:53:40.407Z,90.19
2019-03-22T04:00:20.470Z,89.90
2019-03-22T04:17:04.044Z,91.82
2019-03-22T04:23:14.015Z,94.79
2019-03-22T04:24:14.596Z,94.69
2019-03-22T04:25:36.917Z,95.46
2019-03-22T04:26:37.497Z,95.56
2019-03-22T04:29:57.308Z,94.02
2019-03-22T04:46:22.473Z,89.90
2019-03-22T04:51:45.126Z,90.95
2019-03-22T04:52:45.743Z,90.95
2019-03-22T04:53:46.306Z,91.24
2019-03-22T04:59:58.314Z,90.86
2019-03-22T05:00:58.891Z,89.90
2019-03-22T05:01:59.448Z,90.76
2019-03-22T05:03:00.102Z,90.38
2019-03-22T05:04:15.370Z,91.24
2019-03-22T05:07:31.189Z,91.91
2019-03-22T05:19:50.437Z,92.30
2019-03-22T05:29:42.739Z,91.24
2019-03-22T05:30:43.295Z,90.81
2019-03-22T05:31:43.917Z,90.91
2019-03-22T05:33:46.250Z,90.53
2019-03-22T05:34:46.815Z,89.76
2019-03-22T05:35:47.432Z,91.39
2019-03-22T05:36:47.999Z,91.29
2019-03-22T05:37:48.615Z,91.43
2019-03-22T05:38:49.229Z,91.00
2019-03-22T05:39:49.794Z,91.86
2019-03-22T05:40:50.364Z,91.00
2019-03-22T05:42:52.486Z,90.14
2019-03-22T05:43:53.053Z,89.86
2019-03-22T05:44:53.621Z,89.95
2019-03-22T05:45:54.188Z,89.95
2019-03-22T05:47:56.315Z,90.05
2019-03-22T05:51:13.878Z,90.05
2019-03-22T05:52:14.502Z,89.76
2019-03-22T05:53:15.128Z,90.62
2019-03-22T05:54:15.702Z,90.91
2019-03-22T05:55:16.278Z,90.43
2019-03-22T05:57:18.510Z,89.95
2019-03-22T05:58:19.076Z,89.28
2019-03-22T05:59:19.642Z,90.05
2019-03-22T06:00:20.208Z,90.53
2019-03-22T06:03:35.655Z,91.00
2019-03-22T06:04:36.270Z,90.53
2019-03-22T06:05:36.837Z,91.00
2019-03-22T06:06:37.403Z,90.14
2019-03-22T06:07:37.971Z,88.99
2019-03-22T06:08:38.536Z,89.09
2019-03-22T06:09:39.153Z,89.28
2019-03-22T06:10:39.768Z,89.86
2019-03-22T06:11:40.335Z,91.10
2019-03-22T06:12:40.928Z,90.14
2019-03-22T06:13:44.247Z,89.37
2019-03-22T06:14:42.166Z,88.99
2019-03-22T06:15:42.734Z,89.86
2019-03-22T06:16:43.354Z,88.70
2019-03-22T06:17:51.627Z,89.76
2019-03-22T06:18:45.528Z,90.81
2019-03-22T06:19:46.095Z,90.53
2019-03-22T06:23:39.253Z,90.62
2019-03-22T06:24:39.819Z,90.53
2019-03-22T06:25:40.384Z,90.05
2019-03-22T06:26:40.953Z,90.23
2019-03-22T06:27:41.517Z,89.95
2019-03-22T06:35:03.052Z,91.19
2019-03-22T06:36:03.821Z,91.00
2019-03-22T06:39:08.767Z,90.05
2019-03-22T06:40:23.110Z,90.81
2019-03-22T06:57:41.381Z,89.18
2019-03-22T06:58:41.946Z,90.05
2019-03-22T06:59:42.570Z,89.86
2019-03-22T07:00:43.142Z,89.66
2019-03-22T07:01:43.714Z,90.62
2019-03-22T07:02:44.286Z,89.86
2019-03-22T07:03:44.935Z,89.57
2019-03-22T07:04:45.543Z,89.86
2019-03-22T07:05:46.074Z,88.70
2019-03-22T07:06:46.645Z,90.05
2019-03-22T07:07:47.217Z,90.23
2019-03-22T07:08:47.788Z,91.19
2019-03-22T07:09:48.360Z,90.05
2019-03-22T07:10:48.982Z,91.00
2019-03-22T07:11:49.556Z,90.91
2019-03-22T07:12:50.127Z,92.15
2019-03-22T07:13:50.699Z,91.86
2019-03-22T07:14:51.271Z,90.91
2019-03-22T07:15:51.844Z,90.72
2019-03-22T07:16:52.416Z,89.57
2019-03-22T07:17:52.989Z,90.62
2019-03-22T07:18:53.561Z,91.96
2019-03-22T07:19:54.184Z,89.76
2019-03-22T07:20:54.956Z,90.53
2019-03-22T07:21:55.530Z,89.66
2019-03-22T07:22:56.105Z,90.05
2019-03-22T07:23:56.727Z,92.73
2019-03-22T07:24:57.301Z,90.33
2019-03-22T07:25:57.922Z,90.91
2019-03-22T07:26:58.497Z,90.91
2019-03-22T07:27:59.070Z,90.72
2019-03-22T07:28:59.642Z,91.19
2019-03-22T07:30:00.374Z,91.77
2019-03-22T07:31:00.829Z,91.39
2019-03-22T07:32:01.404Z,92.06
2019-03-22T07:33:02.028Z,93.59
2019-03-22T07:34:02.651Z,91.86
2019-03-22T07:35:03.223Z,91.19
2019-03-22T07:36:03.794Z,91.29
2019-03-22T07:37:04.367Z,91.77
2019-03-22T07:38:04.939Z,90.81
2019-03-22T07:39:05.512Z,90.43
2019-03-22T07:40:06.134Z,90.05
2019-03-22T07:41:06.759Z,90.33
2019-03-22T07:42:07.333Z,90.72
2019-03-22T07:43:07.907Z,90.53
2019-03-22T07:44:08.531Z,89.37
2019-03-22T07:45:09.070Z,89.28
2019-03-22T07:46:09.695Z,89.95
2019-03-22T07:47:10.267Z,90.14
2019-03-22T07:48:10.885Z,89.18
2019-03-22T07:49:11.459Z,88.99
2019-03-22T07:50:12.030Z,88.61
2019-03-22T07:51:12.606Z,89.95
2019-03-22T07:52:13.225Z,89.57
2019-03-22T07:53:13.800Z,91.39
2019-03-22T07:54:14.372Z,91.58
2019-03-22T07:55:14.948Z,90.91
2019-03-22T07:56:15.521Z,91.10
2019-03-22T07:57:16.154Z,91.86
2019-03-22T07:58:16.869Z,91.77
2019-03-22T07:59:17.444Z,91.49
2019-03-22T08:00:29.856Z,90.91
2019-03-22T08:01:19.633Z,91.00
2019-03-22T08:02:20.206Z,91.10
2019-03-22T08:03:20.828Z,91.14
2019-03-22T08:04:21.402Z,92.06
2019-03-22T08:05:22.026Z,90.76
2019-03-22T08:06:22.598Z,91.77
2019-03-22T08:07:23.219Z,92.20
2019-03-22T08:08:23.842Z,91.05
2019-03-22T08:09:24.424Z,91.82
2019-03-22T08:10:24.988Z,92.97
2019-03-22T08:11:25.569Z,91.72
2019-03-22T08:12:26.156Z,91.24
2019-03-22T08:13:26.711Z,90.91
2019-03-22T08:14:27.334Z,91.05
2019-03-22T08:15:27.930Z,91.72
2019-03-22T08:16:28.530Z,91.72
2019-03-22T08:17:29.103Z,91.24
2019-03-22T08:18:29.679Z,90.86
2019-03-22T08:19:30.259Z,91.00
2019-03-22T08:20:30.832Z,90.95
2019-03-22T08:21:31.425Z,89.90
2019-03-22T08:22:32.002Z,90.19
2019-03-22T08:23:32.558Z,89.23
2019-03-22T08:24:33.195Z,89.04
2019-03-22T08:25:33.751Z,90.86
2019-03-22T08:26:34.379Z,93.06
2019-03-22T08:27:34.998Z,90.76
2019-03-22T08:28:35.619Z,91.05
2019-03-22T08:29:36.164Z,91.53
2019-03-22T08:30:42.858Z,93.26
2019-03-22T08:31:37.424Z,94.02
2019-03-22T08:32:37.989Z,90.67
2019-03-22T08:33:38.599Z,90.86
2019-03-22T08:34:39.171Z,89.32
2019-03-22T08:35:39.760Z,90.86
2019-03-22T08:36:40.335Z,89.51
2019-03-22T08:37:52.061Z,90.00
2019-03-22T08:38:42.516Z,90.76
2019-03-22T08:39:43.106Z,91.05
2019-03-22T08:40:43.659Z,92.10
2019-03-22T08:41:44.229Z,92.68
2019-03-22T08:42:44.803Z,89.23
2019-03-22T08:43:45.375Z,91.05
2019-03-22T08:44:45.961Z,90.38
2019-03-22T08:45:46.522Z,89.32
2019-03-22T08:46:47.187Z,91.82
2019-03-22T08:47:47.922Z,91.72
2019-03-22T08:48:48.505Z,92.68
2019-03-22T08:49:49.218Z,91.72
2019-03-22T08:50:49.756Z,90.38
2019-03-22T08:51:50.331Z,91.72
2019-03-22T08:52:50.958Z,93.54
2019-03-22T08:53:55.596Z,91.72
2019-03-22T08:54:53.165Z,90.76
2019-03-22T08:55:53.813Z,87.88
2019-03-22T08:56:54.352Z,91.91
2019-03-22T08:57:54.949Z,93.35
2019-03-22T08:58:55.523Z,90.86
2019-03-22T08:59:56.070Z,88.08
2019-03-22T09:00:58.131Z,89.42
2019-03-22T09:01:57.333Z,90.19
2019-03-22T09:02:57.906Z,88.56
2019-03-22T09:03:58.457Z,90.67
2019-03-22T09:04:59.048Z,91.91
2019-03-22T09:05:59.619Z,91.72
2019-03-22T09:07:00.245Z,89.23
2019-03-22T09:08:00.861Z,89.13
2019-03-22T09:09:01.442Z,93.16
2019-03-22T09:10:02.007Z,92.77
2019-03-22T09:11:02.710Z,94.21
2019-03-22T09:12:03.383Z,92.68
2019-03-22T09:13:03.950Z,92.01
2019-03-22T09:14:04.535Z,92.77
2019-03-22T09:15:05.112Z,92.97
2019-03-22T09:16:05.681Z,93.63
2019-03-22T09:17:06.260Z,93.35
2019-03-22T09:18:06.901Z,92.87
2019-03-22T09:19:07.465Z,93.44
2019-03-22T09:20:08.028Z,90.19
2019-03-22T09:21:08.629Z,89.04
2019-03-22T09:22:09.228Z,90.09
2019-03-22T09:23:09.850Z,91.53
2019-03-22T09:24:10.391Z,92.77
2019-03-22T09:25:10.976Z,89.90
2019-03-22T09:26:11.587Z,89.51
2019-03-22T09:27:12.174Z,91.24
2019-03-22T09:28:12.747Z,91.82
2019-03-22T09:29:13.358Z,92.58
2019-03-22T09:30:13.936Z,92.20
2019-03-22T09:31:14.577Z,92.39
2019-03-22T09:32:15.155Z,92.97
2019-03-22T09:33:15.714Z,93.54
2019-03-22T09:34:16.335Z,92.20
2019-03-22T09:35:16.899Z,90.19
2019-03-22T09:36:17.541Z,92.39
2019-03-22T09:37:18.177Z,92.15
2019-03-22T09:38:18.697Z,92.68
2019-03-22T09:39:19.271Z,93.68
2019-03-22T09:40:19.903Z,94.79
2019-03-22T09:41:20.474Z,94.45
2019-03-22T09:42:21.099Z,93.63
2019-03-22T09:43:21.668Z,93.16
2019-03-22T09:44:22.243Z,94.35
2019-03-22T09:45:22.819Z,93.68
2019-03-22T09:46:23.446Z,94.17
2019-03-22T09:47:24.034Z,94.45
2019-03-22T09:48:24.629Z,94.35
2019-03-22T09:49:25.190Z,94.07
2019-03-22T09:50:25.741Z,93.97
2019-03-22T09:51:26.369Z,94.17
2019-03-22T09:52:27.039Z,92.91
2019-03-22T09:53:30.357Z,92.05
2019-03-22T09:54:29.132Z,93.88
2019-03-22T09:55:29.765Z,91.28
2019-03-22T09:56:30.337Z,91.00
2019-03-22T09:57:30.903Z,91.28
2019-03-22T09:58:31.658Z,91.86
2019-03-22T09:59:32.212Z,89.94
2019-03-22T10:00:32.837Z,90.71
2019-03-22T10:01:33.394Z,92.05
2019-03-22T10:02:33.953Z,92.63
2019-03-22T10:03:34.529Z,92.34
2019-03-22T10:04:35.104Z,92.05
2019-03-22T10:05:35.701Z,91.57
2019-03-22T10:06:36.303Z,91.86
2019-03-22T10:07:37.027Z,92.82
2019-03-22T10:08:37.659Z,93.01
2019-03-22T10:09:38.269Z,93.01
2019-03-22T10:10:38.905Z,93.21
2019-03-22T10:11:39.430Z,93.01
2019-03-22T10:12:40.062Z,93.01
2019-03-22T10:13:40.696Z,92.63
2019-03-22T10:14:41.219Z,92.44
2019-03-22T10:15:41.796Z,91.96
2019-03-22T10:16:42.386Z,91.19
2019-03-22T10:17:42.955Z,91.14
2019-03-22T10:18:43.576Z,92.05
2019-03-22T10:19:44.106Z,92.34
2019-03-22T10:20:44.737Z,91.96
2019-03-22T10:21:45.330Z,92.44
2019-03-22T10:22:45.902Z,92.91
2019-03-22T10:23:46.527Z,93.01
2019-03-22T10:24:47.113Z,92.96
2019-03-22T10:25:47.680Z,93.82
2019-03-22T10:26:48.261Z,93.63
2019-03-22T10:27:48.826Z,89.99
2019-03-22T10:28:49.466Z,92.00
2019-03-22T10:29:50.119Z,92.86
2019-03-22T10:30:50.708Z,92.77
2019-03-22T10:31:51.332Z,93.44
2019-03-22T10:32:51.876Z,93.92
2019-03-22T10:33:52.436Z,93.35
2019-03-22T10:34:53.011Z,93.06
2019-03-22T10:35:53.587Z,93.25
2019-03-22T10:36:54.162Z,93.25
2019-03-22T10:38:00.358Z,92.39
2019-03-22T10:38:56.433Z,91.81
2019-03-22T10:39:57.049Z,92.77
2019-03-22T10:40:57.706Z,92.58
2019-03-22T10:41:58.297Z,92.77
2019-03-22T10:42:58.873Z,92.96
2019-03-22T10:43:59.446Z,92.96
2019-03-22T10:45:00.019Z,93.06
2019-03-22T10:46:00.779Z,92.68
2019-03-22T10:47:01.358Z,92.77
2019-03-22T10:48:01.895Z,92.96
2019-03-22T10:49:02.530Z,91.52
2019-03-22T10:50:03.069Z,90.95
2019-03-22T10:51:03.685Z,91.52
2019-03-22T10:52:04.671Z,92.86
2019-03-22T10:53:05.285Z,92.86
2019-03-22T10:54:05.891Z,92.86
2019-03-22T10:55:23.473Z,92.86
2019-03-22T10:56:08.053Z,93.35
2019-03-22T10:57:08.629Z,93.82
2019-03-22T10:58:20.208Z,93.15
2019-03-22T10:59:10.819Z,92.86
2019-03-22T11:00:11.394Z,92.77
2019-03-22T11:01:11.969Z,93.63
2019-03-22T11:02:12.544Z,93.59
2019-03-22T11:03:13.118Z,93.87
2019-03-22T11:04:13.694Z,92.91
2019-03-22T11:05:14.269Z,93.01
2019-03-22T11:06:14.842Z,92.82
2019-03-22T11:07:15.473Z,93.10
2019-03-22T11:08:16.044Z,93.01
2019-03-22T11:09:16.619Z,93.54
2019-03-22T11:10:17.197Z,92.72
2019-03-22T11:11:17.820Z,93.10
2019-03-22T11:12:18.443Z,92.82
2019-03-22T11:13:19.018Z,92.72
2019-03-22T11:14:19.598Z,93.01
2019-03-22T11:15:20.170Z,93.10
2019-03-22T11:16:20.748Z,93.30
2019-03-22T11:17:21.323Z,93.01
2019-03-22T11:18:21.898Z,93.10
2019-03-22T11:19:22.472Z,93.20
2019-03-22T11:20:23.047Z,93.10
2019-03-22T11:21:23.622Z,92.63
2019-03-22T11:22:24.197Z,92.63
2019-03-22T11:23:24.772Z,92.91
2019-03-22T11:24:25.388Z,93.10
2019-03-22T11:25:25.963Z,92.91
2019-03-22T11:26:26.592Z,92.33
2019-03-22T11:27:27.168Z,92.72
2019-03-22T11:28:27.742Z,92.53
2019-03-22T11:29:28.318Z,92.43
2019-03-22T11:30:28.891Z,92.24
2019-03-22T11:31:35.967Z,92.43
2019-03-22T11:32:31.087Z,92.33
2019-03-22T11:33:31.659Z,92.24
2019-03-22T11:34:32.234Z,91.86
2019-03-22T11:35:32.809Z,92.82
2019-03-22T11:36:33.383Z,92.05
2019-03-22T11:37:33.958Z,92.33
2019-03-22T11:38:34.534Z,92.05
2019-03-22T11:39:35.110Z,92.05
2019-03-22T11:40:35.686Z,92.14
2019-03-22T11:41:36.306Z,92.24
2019-03-22T11:42:36.881Z,92.05
2019-03-22T11:43:37.458Z,92.05
2019-03-22T11:44:38.082Z,92.24
2019-03-22T11:45:38.656Z,91.96
2019-03-22T11:46:39.232Z,92.05
2019-03-22T11:47:39.808Z,92.24
2019-03-22T11:48:40.382Z,92.05
2019-03-22T11:49:40.958Z,92.33
2019-03-22T11:50:41.532Z,91.76
2019-03-22T11:51:42.157Z,91.47
2019-03-22T11:52:42.735Z,91.66
2019-03-22T11:53:43.309Z,91.66
2019-03-22T11:54:43.886Z,91.76
2019-03-22T11:55:44.462Z,91.96
2019-03-22T11:56:45.039Z,91.76
2019-03-22T11:57:45.615Z,91.76
2019-03-22T11:58:46.191Z,91.96
2019-03-22T11:59:46.767Z,92.00
2019-03-22T12:00:47.339Z,91.96
2019-03-22T12:01:47.915Z,91.81
2019-03-22T12:02:48.498Z,92.00
2019-03-22T12:03:49.116Z,91.52
2019-03-22T12:04:49.692Z,91.04
2019-03-22T12:05:50.272Z,90.66
2019-03-22T12:06:50.935Z,90.94
2019-03-22T12:07:51.560Z,91.28
2019-03-22T12:08:52.138Z,90.46
2019-03-22T12:09:52.763Z,90.94
2019-03-22T12:10:53.340Z,91.33
2019-03-22T12:11:53.913Z,91.23
2019-03-22T12:12:54.540Z,91.42
2019-03-22T12:13:55.114Z,91.90
2019-03-22T12:14:55.689Z,90.94
2019-03-22T12:15:56.358Z,91.23
2019-03-22T12:16:56.934Z,91.23
2019-03-22T12:17:57.511Z,91.23
2019-03-22T12:18:58.089Z,91.13
2019-03-22T12:19:58.670Z,90.94
2019-03-22T12:20:59.244Z,90.94
2019-03-22T12:21:59.819Z,90.46
2019-03-22T12:23:00.397Z,91.33
2019-03-22T12:24:00.970Z,91.33
2019-03-22T12:25:01.596Z,91.23
2019-03-22T12:26:02.169Z,90.94
2019-03-22T12:27:02.796Z,90.27
2019-03-22T12:28:03.371Z,89.79
2019-03-22T12:29:03.999Z,88.93
2019-03-22T12:30:04.669Z,88.93
2019-03-22T12:31:05.296Z,89.31
2019-03-22T12:32:05.973Z,89.50
2019-03-22T12:33:06.599Z,89.89
2019-03-22T12:34:07.274Z,89.69
2019-03-22T12:35:07.847Z,89.79
2019-03-22T12:36:08.422Z,89.79
2019-03-22T12:37:08.996Z,90.08
2019-03-22T12:38:09.673Z,89.69
2019-03-22T12:39:10.249Z,90.56
2019-03-22T12:40:10.826Z,90.46
2019-03-22T12:41:11.447Z,90.46
2019-03-22T12:42:12.022Z,90.37
2019-03-22T12:43:12.599Z,90.17
2019-03-22T12:44:13.173Z,89.89
2019-03-22T12:45:13.748Z,89.98
2019-03-22T12:46:14.323Z,90.27
2019-03-22T12:47:14.899Z,90.46
2019-03-22T12:48:15.474Z,90.46
2019-03-22T12:49:16.101Z,91.04
2019-03-22T12:50:16.726Z,90.94
2019-03-22T12:51:17.351Z,90.84
2019-03-22T12:52:17.975Z,90.37
2019-03-22T12:53:18.556Z,90.46
2019-03-22T12:54:19.224Z,89.98
2019-03-22T12:55:19.799Z,90.08
2019-03-22T12:56:20.423Z,89.98
2019-03-22T12:57:21.003Z,90.08
2019-03-22T12:58:21.578Z,89.02
2019-03-22T12:59:22.204Z,89.31
2019-03-22T13:00:22.784Z,89.40
2019-03-22T13:01:23.354Z,89.69
2019-03-22T13:02:23.928Z,90.66
2019-03-22T13:03:24.534Z,90.94
2019-03-22T13:04:25.079Z,91.13
2019-03-22T13:05:25.655Z,89.89
2019-03-22T13:06:26.229Z,88.93
2019-03-22T13:07:26.804Z,90.17
2019-03-22T13:08:27.386Z,90.27
2019-03-22T13:09:28.009Z,90.84
2019-03-22T13:10:28.583Z,90.84
2019-03-22T13:11:29.156Z,90.84
2019-03-22T13:12:29.731Z,90.84
2019-03-22T13:13:30.306Z,90.75
2019-03-22T13:14:30.971Z,90.84
2019-03-22T13:15:31.509Z,90.56
2019-03-22T13:16:32.085Z,91.23
2019-03-22T13:17:32.659Z,91.23
2019-03-22T13:18:33.313Z,90.94
2019-03-22T13:19:33.895Z,90.94
2019-03-22T13:20:34.476Z,91.04
2019-03-22T13:21:35.048Z,91.04
2019-03-22T13:22:35.623Z,90.37
2019-03-22T13:23:36.200Z,90.27
2019-03-22T13:24:36.774Z,90.17
2019-03-22T13:25:37.353Z,89.79
2019-03-22T13:26:37.927Z,89.31
2019-03-22T13:27:38.500Z,89.69
2019-03-22T13:28:39.075Z,90.17
2019-03-22T13:29:39.700Z,89.69
2019-03-22T13:30:40.329Z,90.17
2019-03-22T13:31:40.902Z,89.89
2019-03-22T13:32:41.478Z,89.98
2019-03-22T13:33:42.053Z,88.93
2019-03-22T13:34:42.677Z,89.50
2019-03-22T13:35:43.453Z,89.79
2019-03-22T13:36:44.028Z,90.08
2019-03-22T13:37:44.606Z,89.79
2019-03-22T13:38:45.181Z,90.27
2019-03-22T13:39:45.757Z,90.37
2019-03-22T13:40:46.333Z,90.56
2019-03-22T13:41:46.908Z,89.12
2019-03-22T13:42:47.531Z,89.22
2019-03-22T13:43:48.108Z,89.60
2019-03-22T13:44:48.688Z,89.69
2019-03-22T13:45:49.316Z,89.98
2019-03-22T13:46:50.189Z,89.89
2019-03-22T13:47:50.767Z,89.31
2019-03-22T13:48:51.343Z,89.40
2019-03-22T13:49:51.920Z,89.69
2019-03-22T13:51:54.106Z,89.40
2019-03-22T13:52:54.724Z,89.50
2019-03-22T13:53:55.291Z,88.93
2019-03-22T13:54:55.902Z,89.50
2019-03-22T13:55:56.519Z,89.50
2019-03-22T13:56:57.089Z,89.22
2019-03-22T13:57:57.656Z,88.54
2019-03-22T13:58:58.225Z,89.02
2019-03-22T13:59:58.800Z,89.40
2019-03-22T14:00:59.361Z,88.73
2019-03-22T14:01:59.948Z,88.54
2019-03-22T14:03:03.072Z,89.02
2019-03-22T14:04:02.138Z,89.31
2019-03-22T14:05:02.730Z,89.60
2019-03-22T14:06:03.309Z,89.31
2019-03-22T14:07:03.881Z,89.40
2019-03-22T14:08:04.511Z,89.31
2019-03-22T14:09:05.083Z,89.22
2019-03-22T14:10:05.712Z,89.36
2019-03-22T14:11:06.286Z,89.07
2019-03-22T14:13:08.525Z,89.54
2019-03-22T14:14:09.096Z,89.07
2019-03-22T14:15:55.417Z,89.07
2019-03-22T14:16:56.034Z,89.31
2019-03-22T14:18:10.324Z,89.02
2019-03-22T14:21:06.218Z,89.16
2019-03-22T14:22:06.786Z,89.26
2019-03-22T14:23:07.355Z,88.97
2019-03-22T14:24:07.974Z,89.07
2019-03-22T14:25:08.542Z,88.97
2019-03-22T14:26:09.120Z,88.87
2019-03-22T14:27:09.699Z,89.07
2019-03-22T14:28:10.477Z,89.07
2019-03-22T14:29:11.094Z,88.97
2019-03-22T14:30:11.720Z,88.68
2019-03-22T14:31:12.297Z,89.26
2019-03-22T14:33:14.435Z,88.97
2019-03-22T14:37:33.479Z,88.87
2019-03-22T14:38:34.057Z,89.16
2019-03-22T14:39:34.635Z,88.68
2019-03-22T14:40:35.261Z,88.87
2019-03-22T14:41:35.839Z,88.87
2019-03-22T14:46:02.875Z,88.68
2019-03-22T14:48:18.767Z,88.78
2019-03-22T14:49:25.602Z,88.87
2019-03-22T14:51:27.736Z,88.20
2019-03-22T14:52:42.018Z,88.01
2019-03-22T14:53:42.585Z,88.97
2019-03-22T14:54:43.153Z,88.68
2019-03-22T14:55:43.775Z,88.68
2019-03-22T14:56:44.343Z,88.59
2019-03-22T14:59:00.343Z,88.78
2019-03-22T15:00:00.920Z,88.78
2019-03-22T15:01:01.646Z,88.87
2019-03-22T15:02:02.222Z,88.78
2019-03-22T15:05:06.022Z,88.10
2019-03-22T15:07:19.387Z,89.07
2019-03-22T15:08:16.039Z,88.49
2019-03-22T15:12:35.156Z,88.59
2019-03-22T15:13:57.499Z,88.68
2019-03-22T15:15:59.643Z,88.30
2019-03-22T15:17:00.224Z,88.39
2019-03-22T15:19:02.361Z,87.92
2019-03-22T15:21:22.217Z,87.72
2019-03-22T15:22:40.708Z,86.57
2019-03-22T15:23:41.334Z,87.53
2019-03-22T15:24:41.963Z,87.15
2019-03-22T15:27:14.557Z,87.34
2019-03-22T15:29:34.416Z,87.62
2019-03-22T15:30:35.086Z,86.95
2019-03-22T15:32:54.937Z,87.53
2019-03-22T15:34:09.422Z,87.72
2019-03-22T15:35:10.107Z,87.53
2019-03-22T15:38:13.956Z,87.53
2019-03-22T15:41:35.427Z,87.67
2019-03-22T15:42:36.003Z,87.38
2019-03-22T15:44:38.144Z,86.61
2019-03-22T15:47:41.846Z,86.99
2019-03-22T15:48:42.427Z,87.19
2019-03-22T15:49:43.052Z,86.90
2019-03-22T15:50:43.630Z,86.61
2019-03-22T15:51:44.205Z,86.71
2019-03-22T15:52:44.831Z,85.84
2019-03-22T15:53:45.410Z,85.65
2019-03-22T15:54:45.988Z,84.78
2019-03-22T15:55:46.616Z,84.40
2019-03-22T15:56:47.194Z,81.99
2019-03-22T15:57:47.775Z,84.59
2019-03-22T15:58:48.354Z,85.94
2019-03-22T15:59:48.933Z,85.65
2019-03-22T16:00:49.531Z,85.84
2019-03-22T16:01:50.131Z,86.42
2019-03-22T16:02:50.710Z,86.04
2019-03-22T16:03:51.286Z,86.52
2019-03-22T16:04:51.865Z,86.42
2019-03-22T16:05:52.444Z,85.65
2019-03-22T16:06:53.075Z,85.75
2019-03-22T16:07:53.653Z,85.75
2019-03-22T16:09:55.991Z,85.84
2019-03-22T16:10:56.563Z,85.84
2019-03-22T16:11:57.181Z,85.46
2019-03-22T16:12:57.801Z,85.75
2019-03-22T16:13:58.423Z,86.04
2019-03-22T16:16:28.178Z,86.61
2019-03-22T16:17:28.756Z,86.42
2019-03-22T16:18:29.335Z,86.42
2019-03-22T16:19:30.900Z,85.46
2019-03-22T16:20:31.471Z,85.94
2019-03-22T16:22:13.841Z,84.88
2019-03-22T16:30:53.192Z,85.75
2019-03-22T16:32:55.328Z,85.94
2019-03-22T16:35:11.241Z,85.84
2019-03-22T16:39:16.617Z,85.65
2019-03-22T16:40:34.904Z,85.07
2019-03-22T16:41:35.474Z,85.02
2019-03-22T16:44:57.104Z,85.60
2019-03-22T16:47:52.398Z,84.92
2019-03-22T16:50:40.490Z,84.73
2019-03-22T16:51:41.072Z,84.92
2019-03-22T16:53:43.264Z,84.92
2019-03-22T16:57:00.889Z,84.63
2019-03-22T16:58:27.188Z,81.65
2019-03-22T17:02:48.145Z,83.48
2019-03-22T17:04:11.709Z,84.25
2019-03-22T17:07:20.788Z,85.02
2019-03-22T17:09:23.141Z,83.29
2019-03-22T17:10:23.719Z,83.58
2019-03-22T17:12:51.636Z,85.60
2019-03-22T17:13:52.213Z,86.36
2019-03-22T17:14:52.794Z,86.46
2019-03-22T17:15:53.370Z,85.98
2019-03-22T17:16:53.951Z,86.46
2019-03-22T17:27:35.905Z,85.40
2019-03-22T17:32:12.806Z,82.90
2019-03-22T17:33:13.424Z,84.54
2019-03-22T17:35:18.347Z,84.92
2019-03-22T17:37:38.263Z,84.54
2019-03-22T17:39:23.345Z,84.63
2019-03-22T17:40:24.176Z,84.25
2019-03-22T17:41:24.795Z,84.34
2019-03-22T17:42:25.422Z,84.44
2019-03-22T17:43:26.000Z,83.48
2019-03-22T17:44:26.579Z,82.23
2019-03-22T17:47:30.489Z,81.75
2019-03-22T17:49:34.305Z,82.61
2019-03-22T18:00:14.302Z,82.32
2019-03-22T18:07:15.611Z,82.23
2019-03-22T18:08:16.388Z,83.77
2019-03-22T18:09:17.260Z,84.92
2019-03-22T18:10:17.839Z,84.25
2019-03-22T18:11:18.414Z,83.67
2019-03-22T18:12:18.991Z,84.83
2019-03-22T18:13:19.567Z,85.31
2019-03-22T18:14:20.149Z,85.88
2019-03-22T18:15:20.723Z,85.75
2019-03-22T18:16:21.301Z,86.46
2019-03-22T18:17:21.875Z,86.46
2019-03-22T18:18:22.449Z,86.46
2019-03-22T18:19:23.085Z,86.52
2019-03-22T18:20:23.654Z,86.36
2019-03-22T18:21:24.228Z,86.46
2019-03-22T18:22:24.809Z,86.71
2019-03-22T18:24:40.799Z,86.80
2019-03-22T18:25:41.423Z,87.09
2019-03-22T18:26:42.039Z,86.56
2019-03-22T18:27:42.608Z,85.88
2019-03-22T18:28:43.178Z,84.98
2019-03-22T18:29:43.746Z,86.61
2019-03-22T18:30:44.414Z,86.13
2019-03-22T18:34:12.934Z,87.57
2019-03-22T18:47:36.128Z,87.57
2019-03-22T18:53:39.119Z,86.42
2019-03-22T19:03:06.917Z,88.73
2019-03-22T19:06:42.814Z,89.01
2019-03-22T19:08:44.999Z,89.30
2019-03-22T19:13:18.212Z,90.03
2019-03-22T19:14:18.831Z,90.26
2019-03-22T19:15:33.164Z,89.45
2019-03-22T20:42:16.703Z,92.00
2019-03-22T20:43:17.323Z,92.19
2019-03-22T20:45:24.131Z,91.23
2019-03-22T20:46:21.067Z,91.33
2019-03-22T20:47:21.634Z,91.71
2019-03-22T20:48:22.203Z,91.61
2019-03-22T20:49:22.768Z,91.33
2019-03-22T20:50:23.386Z,91.23
2019-03-22T20:51:24.053Z,91.04
2019-03-22T20:52:24.670Z,91.13
2019-03-22T20:53:25.241Z,91.33
2019-03-22T20:54:25.806Z,91.33
2019-03-22T20:55:26.373Z,91.23
2019-03-22T20:56:26.940Z,91.04
2019-03-22T20:57:27.508Z,91.42
2019-03-22T20:58:28.127Z,90.94
2019-03-22T20:59:28.697Z,90.94
2019-03-22T21:00:29.316Z,91.42
2019-03-22T21:01:29.936Z,91.33
2019-03-22T21:02:30.506Z,91.33
2019-03-22T21:03:31.073Z,91.52
2019-03-22T21:04:31.691Z,90.94
2019-03-22T21:05:32.263Z,91.42
2019-03-22T21:06:32.833Z,91.04
2019-03-22T21:07:33.423Z,91.04
2019-03-22T21:08:34.052Z,91.66
2019-03-22T21:09:34.623Z,90.66
2019-03-22T21:10:35.181Z,90.75
2019-03-22T21:11:35.788Z,91.04
2019-03-22T21:12:36.356Z,91.42
2019-03-22T21:13:36.926Z,91.28
2019-03-22T21:14:37.494Z,91.42
2019-03-22T21:15:38.067Z,90.99
2019-03-22T21:16:38.721Z,91.23
2019-03-22T21:17:39.253Z,91.04
2019-03-22T21:18:39.878Z,91.52
2019-03-22T21:19:40.448Z,91.23
2019-03-22T21:20:41.018Z,91.13